Time;durP1;ratioP1;P1;durP2;ratioP2;P2;SDS_P1;SDS_P2;PMS_P1;PMS_P2;Temp;Humidity;BMP_temperature;BMP_pressure;BME280_temperature;BME280_humidity;BME280_pressure;Samples;Min_cycle;Max_cycle;Signal;HPM_P1;HPM_P2
2022/10/20 00:01:06;;;;;;;17.33;13.30;;;;;;;;;;5072165;28;20183;-86
2022/10/20 00:04:10;;;;;;;20.40;14.13;;;;;;;;;;5094814;28;20226;-86
2022/10/20 00:07:14;;;;;;;21.23;14.33;;;;;;;;;;5072213;28;20179;-86
2022/10/20 00:10:18;;;;;;;17.43;13.37;;;;;;;;;;5072308;28;20175;-86
2022/10/20 00:13:23;;;;;;;19.93;13.53;;;;;;;;;;5083287;28;20218;-86
2022/10/20 00:16:29;;;;;;;20.70;13.67;;;;;;;;;;5083118;28;20219;-86
2022/10/20 00:19:32;;;;;;;25.77;14.43;;;;;;;;;;5071873;28;20514;-86
2022/10/20 00:22:36;;;;;;;18.50;13.57;;;;;;;;;;5084247;28;20510;-87
2022/10/20 00:25:41;;;;;;;20.13;13.33;;;;;;;;;;5090230;28;20197;-86
2022/10/20 00:28:46;;;;;;;20.50;13.57;;;;;;;;;;5103230;28;20541;-86
2022/10/20 00:31:50;;;;;;;19.80;14.00;;;;;;;;;;5091900;28;20179;-86
2022/10/20 00:34:54;;;;;;;24.77;15.90;;;;;;;;;;5091757;28;20218;-86
2022/10/20 00:37:59;;;;;;;24.23;14.83;;;;;;;;;;5103352;28;20221;-86
2022/10/20 00:41:03;;;;;;;19.90;14.83;;;;;;;;;;5103357;28;20174;-86
2022/10/20 00:44:44;;;;;;;22.03;15.40;;;;;;;;;;5091439;28;20217;-86
2022/10/20 00:47:55;;;;;;;21.53;14.60;;;;;;;;;;5103111;28;20178;-86
2022/10/20 00:51:00;;;;;;;20.93;14.63;;;;;;;;;;5103710;28;20179;-86
2022/10/20 00:54:09;;;;;;;22.10;15.50;;;;;;;;;;5103180;28;20214;-86
2022/10/20 00:57:14;;;;;;;25.27;15.30;;;;;;;;;;5102612;28;20213;-86
2022/10/20 01:00:18;;;;;;;23.10;15.20;;;;;;;;;;5091654;28;20174;-86
2022/10/20 01:03:29;;;;;;;22.07;15.00;;;;;;;;;;5114376;28;20210;-86
2022/10/20 01:06:33;;;;;;;24.83;15.63;;;;;;;;;;5102897;28;20179;-86
2022/10/20 01:09:38;;;;;;;21.77;15.87;;;;;;;;;;5090959;28;20632;-86
2022/10/20 01:13:06;;;;;;;21.93;16.33;;;;;;;;;;5102823;28;20182;-86
2022/10/20 01:16:29;;;;;;;23.73;15.83;;;;;;;;;;5114685;28;20206;-86
2022/10/20 01:20:04;;;;;;;22.43;15.83;;;;;;;;;;5091274;28;20178;-86
2022/10/20 01:23:35;;;;;;;21.83;14.97;;;;;;;;;;5114389;28;20174;-86
2022/10/20 01:26:46;;;;;;;20.47;15.07;;;;;;;;;;5090748;28;20174;-86
2022/10/20 01:30:02;;;;;;;22.77;15.50;;;;;;;;;;5090793;28;20174;-86
2022/10/20 01:33:31;;;;;;;25.23;16.10;;;;;;;;;;5090425;28;20194;-86
2022/10/20 01:36:42;;;;;;;21.33;15.93;;;;;;;;;;5090819;28;20206;-85
2022/10/20 01:39:59;;;;;;;26.03;16.53;;;;;;;;;;5090940;28;20183;-86
2022/10/20 01:43:07;;;;;;;23.63;16.40;;;;;;;;;;5102397;28;20194;-86
2022/10/20 01:46:14;;;;;;;20.80;15.57;;;;;;;;;;5090750;28;20198;-86
2022/10/20 01:49:18;;;;;;;23.57;16.17;;;;;;;;;;5102130;28;20189;-86
2022/10/20 01:52:23;;;;;;;23.03;16.00;;;;;;;;;;5090735;28;20178;-86
2022/10/20 01:55:28;;;;;;;20.43;15.87;;;;;;;;;;5090571;28;20513;-86
2022/10/20 01:59:04;;;;;;;22.17;16.17;;;;;;;;;;5113703;28;20660;-85
2022/10/20 02:02:31;;;;;;;19.60;15.63;;;;;;;;;;5090569;28;20182;-86
2022/10/20 02:06:01;;;;;;;22.57;15.33;;;;;;;;;;5101603;28;20198;-85
2022/10/20 02:09:10;;;;;;;24.83;16.70;;;;;;;;;;5090389;28;20178;-85
2022/10/20 02:12:28;;;;;;;18.67;15.00;;;;;;;;;;5113430;28;20178;-85
2022/10/20 02:15:37;;;;;;;22.47;16.30;;;;;;;;;;5101814;28;20194;-86
2022/10/20 02:18:45;;;;;;;24.63;16.13;;;;;;;;;;5100986;28;20190;-85
2022/10/20 02:21:51;;;;;;;23.10;16.17;;;;;;;;;;5090360;28;20178;-85
2022/10/20 02:24:55;;;;;;;22.37;16.03;;;;;;;;;;5101542;28;20578;-85
2022/10/20 02:28:01;;;;;;;19.60;15.77;;;;;;;;;;5090086;28;20170;-85
2022/10/20 02:31:05;;;;;;;25.03;15.17;;;;;;;;;;5090326;28;20628;-85
2022/10/20 02:34:10;;;;;;;23.90;15.53;;;;;;;;;;5101566;28;20218;-85
2022/10/20 02:37:14;;;;;;;20.47;15.53;;;;;;;;;;5113649;28;20202;-85
2022/10/20 02:40:20;;;;;;;21.87;15.90;;;;;;;;;;5101772;28;20178;-86
2022/10/20 02:43:24;;;;;;;19.53;14.67;;;;;;;;;;5113025;28;20214;-86
2022/10/20 02:46:29;;;;;;;20.97;16.33;;;;;;;;;;5101743;28;20175;-86
2022/10/20 02:49:33;;;;;;;27.20;16.00;;;;;;;;;;5113152;28;20186;-86
2022/10/20 02:52:37;;;;;;;19.87;15.03;;;;;;;;;;5091009;28;20178;-86
2022/10/20 02:55:42;;;;;;;23.40;16.03;;;;;;;;;;5094063;28;20174;-85
2022/10/20 02:58:46;;;;;;;18.27;14.50;;;;;;;;;;5105532;28;20182;-85
2022/10/20 03:01:51;;;;;;;22.70;15.53;;;;;;;;;;5093679;28;20186;-86
2022/10/20 03:04:55;;;;;;;21.43;14.60;;;;;;;;;;5116641;28;20221;-86
2022/10/20 03:07:59;;;;;;;23.07;14.43;;;;;;;;;;5093499;28;20624;-86
2022/10/20 03:11:03;;;;;;;18.03;14.30;;;;;;;;;;5093817;28;20182;-86
2022/10/20 03:14:07;;;;;;;22.27;14.47;;;;;;;;;;5093448;28;20218;-85
2022/10/20 03:17:11;;;;;;;22.93;14.23;;;;;;;;;;5093141;28;20206;-85
2022/10/20 03:20:15;;;;;;;23.73;14.33;;;;;;;;;;5093340;28;20193;-85
2022/10/20 03:23:20;;;;;;;20.93;14.43;;;;;;;;;;5092974;28;20190;-85
2022/10/20 03:26:25;;;;;;;22.83;13.17;;;;;;;;;;5116841;28;20183;-85
2022/10/20 03:29:29;;;;;;;19.00;13.53;;;;;;;;;;5104850;28;20174;-85
2022/10/20 03:32:33;;;;;;;16.93;13.67;;;;;;;;;;5092978;28;20197;-85
2022/10/20 03:35:37;;;;;;;19.30;13.50;;;;;;;;;;5092903;28;20182;-85
2022/10/20 03:38:42;;;;;;;19.90;12.30;;;;;;;;;;5092788;28;20202;-85
2022/10/20 03:41:46;;;;;;;17.33;13.17;;;;;;;;;;5104830;28;20170;-85
2022/10/20 03:44:50;;;;;;;16.33;12.07;;;;;;;;;;5092801;28;20213;-86
2022/10/20 03:47:54;;;;;;;27.27;13.03;;;;;;;;;;5104195;28;20193;-86
2022/10/20 03:51:00;;;;;;;17.33;12.10;;;;;;;;;;5092787;28;20178;-86
2022/10/20 03:54:04;;;;;;;18.47;11.93;;;;;;;;;;5104166;28;20213;-86
2022/10/20 03:57:08;;;;;;;22.77;12.83;;;;;;;;;;5104570;28;20222;-86
2022/10/20 04:00:12;;;;;;;15.57;12.00;;;;;;;;;;5093091;28;20506;-85
2022/10/20 04:03:16;;;;;;;15.27;11.70;;;;;;;;;;5115408;28;20174;-86
2022/10/20 04:06:20;;;;;;;19.13;11.73;;;;;;;;;;5078453;22;20228;-88
2022/10/20 04:09:24;;;;;;;19.33;12.10;;;;;;;;;;5013609;28;20173;-88
2022/10/20 04:12:29;;;;;;;15.13;11.23;;;;;;;;;;5025018;28;20535;-88
2022/10/20 04:15:33;;;;;;;15.93;11.97;;;;;;;;;;5035344;28;20227;-88
2022/10/20 04:18:37;;;;;;;19.50;11.63;;;;;;;;;;5024662;28;20200;-86
2022/10/20 04:21:41;;;;;;;16.40;10.73;;;;;;;;;;5024415;28;20204;-89
2022/10/20 04:24:45;;;;;;;16.03;11.67;;;;;;;;;;5024068;28;20177;-87
2022/10/20 04:27:49;;;;;;;14.23;11.30;;;;;;;;;;5024003;28;20173;-85
2022/10/20 04:30:56;;;;;;;19.63;12.40;;;;;;;;;;5012819;28;20679;-86
2022/10/20 04:34:00;;;;;;;15.13;10.60;;;;;;;;;;5024758;28;20184;-87
2022/10/20 04:37:04;;;;;;;15.93;11.03;;;;;;;;;;5035713;28;20181;-88
2022/10/20 04:40:09;;;;;;;17.30;11.13;;;;;;;;;;5013104;28;20193;-88
2022/10/20 04:43:13;;;;;;;13.63;10.43;;;;;;;;;;5035703;28;20185;-88
2022/10/20 04:46:18;;;;;;;16.37;11.07;;;;;;;;;;5023918;28;20675;-87
2022/10/20 04:49:22;;;;;;;13.93;10.53;;;;;;;;;;5035436;28;20185;-87
2022/10/20 04:52:27;;;;;;;15.40;10.53;;;;;;;;;;5035140;28;20517;-87
2022/10/20 04:55:31;;;;;;;18.43;10.73;;;;;;;;;;5034797;28;20220;-86
2022/10/20 04:58:36;;;;;;;17.30;10.43;;;;;;;;;;5023713;28;20216;-86
2022/10/20 05:01:40;;;;;;;17.50;10.17;;;;;;;;;;5024847;28;20185;-87
2022/10/20 05:04:45;;;;;;;12.77;10.00;;;;;;;;;;5043163;28;20520;-88
2022/10/20 05:07:49;;;;;;;15.70;10.87;;;;;;;;;;5031536;28;20173;-87
2022/10/20 05:10:53;;;;;;;14.17;10.20;;;;;;;;;;5054748;28;20180;-88
2022/10/20 05:13:58;;;;;;;13.03;10.03;;;;;;;;;;5032651;28;20651;-86
2022/10/20 05:17:02;;;;;;;15.50;11.17;;;;;;;;;;5036537;28;20212;-86
2022/10/20 05:20:07;;;;;;;17.53;10.60;;;;;;;;;;5049534;28;20176;-87
2022/10/20 05:23:11;;;;;;;17.07;9.90;;;;;;;;;;5057702;28;20176;-87
2022/10/20 05:26:17;;;;;;;23.20;10.53;;;;;;;;;;5033271;28;20216;-88
2022/10/20 05:29:21;;;;;;;16.70;9.67;;;;;;;;;;5022275;28;20628;-88
2022/10/20 05:32:25;;;;;;;16.97;9.73;;;;;;;;;;5022825;28;20197;-88
2022/10/20 05:35:29;;;;;;;16.50;10.60;;;;;;;;;;5011317;28;20212;-88
2022/10/20 05:38:35;;;;;;;14.27;9.83;;;;;;;;;;5022433;28;20544;-88
2022/10/20 05:41:39;;;;;;;15.80;9.67;;;;;;;;;;5034213;28;20521;-88
2022/10/20 05:44:43;;;;;;;15.10;9.60;;;;;;;;;;5034249;28;20180;-88
2022/10/20 05:47:48;;;;;;;10.77;8.90;;;;;;;;;;5011105;28;20172;-88
2022/10/20 05:50:52;;;;;;;14.67;9.33;;;;;;;;;;5022609;28;20189;-88
2022/10/20 05:53:57;;;;;;;16.83;9.30;;;;;;;;;;5011779;28;20181;-88
2022/10/20 05:57:02;;;;;;;16.27;10.03;;;;;;;;;;5011904;28;20212;-88
2022/10/20 06:00:06;;;;;;;13.70;10.53;;;;;;;;;;5023082;28;20623;-88
2022/10/20 06:03:15;;;;;;;23.40;9.97;;;;;;;;;;5023946;28;20184;-88
2022/10/20 06:06:21;;;;;;;14.80;9.20;;;;;;;;;;5011714;28;20220;-88
2022/10/20 06:09:25;;;;;;;16.97;10.23;;;;;;;;;;5011769;28;20177;-88
2022/10/20 06:12:30;;;;;;;16.37;9.97;;;;;;;;;;5012127;28;20176;-88
2022/10/20 06:15:34;;;;;;;19.90;9.27;;;;;;;;;;5011828;28;20207;-87
2022/10/20 06:18:38;;;;;;;15.93;9.70;;;;;;;;;;5011214;28;20209;-87
2022/10/20 06:21:42;;;;;;;20.43;9.30;;;;;;;;;;5011284;28;20536;-88
2022/10/20 06:24:46;;;;;;;16.97;9.33;;;;;;;;;;5011196;28;20196;-88
2022/10/20 06:27:51;;;;;;;22.50;9.17;;;;;;;;;;5034039;28;20173;-88
2022/10/20 06:30:54;;;;;;;16.83;9.23;;;;;;;;;;5011108;28;20181;-88
2022/10/20 06:33:59;;;;;;;12.80;8.80;;;;;;;;;;5011415;28;20185;-88
2022/10/20 06:37:03;;;;;;;13.63;8.50;;;;;;;;;;5010813;28;20216;-88
2022/10/20 06:40:08;;;;;;;11.80;9.10;;;;;;;;;;5023848;28;20173;-88
2022/10/20 06:43:12;;;;;;;11.93;8.50;;;;;;;;;;5022018;28;20188;-88
2022/10/20 06:46:17;;;;;;;12.50;8.10;;;;;;;;;;5021916;28;20212;-88
2022/10/20 06:49:22;;;;;;;12.60;8.57;;;;;;;;;;5012208;28;20620;-88
2022/10/20 06:52:26;;;;;;;10.87;8.50;;;;;;;;;;5022514;28;20197;-88
2022/10/20 06:55:30;;;;;;;10.77;7.83;;;;;;;;;;5010568;28;20220;-88
2022/10/20 06:58:36;;;;;;;12.67;8.47;;;;;;;;;;5021923;28;20204;-88
2022/10/20 07:01:41;;;;;;;26.47;7.80;;;;;;;;;;5010648;28;20185;-88
2022/10/20 07:04:44;;;;;;;15.63;8.20;;;;;;;;;;5010436;28;20200;-88
2022/10/20 07:07:51;;;;;;;12.43;8.73;;;;;;;;;;5021641;28;20205;-88
2022/10/20 07:11:05;;;;;;;15.00;7.53;;;;;;;;;;5036408;28;20177;-88
2022/10/20 07:14:12;;;;;;;16.53;7.53;;;;;;;;;;5013236;28;20189;-88
2022/10/20 07:17:16;;;;;;;20.27;8.83;;;;;;;;;;5015303;28;20181;-88
2022/10/20 07:20:20;;;;;;;13.27;7.87;;;;;;;;;;5014824;28;20173;-88
2022/10/20 07:23:26;;;;;;;15.20;6.63;;;;;;;;;;5026271;28;20177;-89
2022/10/20 07:26:33;;;;;;;10.87;7.43;;;;;;;;;;5019475;28;20212;-88
2022/10/20 07:29:38;;;;;;;13.57;7.43;;;;;;;;;;5029819;28;20185;-89
2022/10/20 07:32:42;;;;;;;12.63;7.10;;;;;;;;;;5019438;28;20185;-88
2022/10/20 07:35:47;;;;;;;9.80;6.80;;;;;;;;;;5029642;28;20216;-88
2022/10/20 07:38:53;;;;;;;41.90;7.63;;;;;;;;;;5030560;28;20201;-88
2022/10/20 07:41:57;;;;;;;9.80;6.80;;;;;;;;;;5043174;28;20185;-88
2022/10/20 07:45:02;;;;;;;15.17;7.07;;;;;;;;;;5019187;28;20213;-88
2022/10/20 07:48:08;;;;;;;10.93;6.60;;;;;;;;;;5040855;28;20196;-88
2022/10/20 07:51:25;;;;;;;13.13;7.03;;;;;;;;;;5017300;28;20200;-88
2022/10/20 07:54:30;;;;;;;15.10;6.70;;;;;;;;;;5017256;28;20181;-88
2022/10/20 07:57:34;;;;;;;9.03;5.90;;;;;;;;;;5016778;28;20177;-87
2022/10/20 08:00:38;;;;;;;10.73;6.70;;;;;;;;;;5027314;28;20169;-88
2022/10/20 08:03:42;;;;;;;7.53;6.30;;;;;;;;;;5026805;28;20193;-88
2022/10/20 08:06:46;;;;;;;11.73;6.00;;;;;;;;;;5014878;28;20224;-88
2022/10/20 08:09:50;;;;;;;10.60;5.97;;;;;;;;;;5025917;28;20177;-88
2022/10/20 08:12:55;;;;;;;8.80;6.03;;;;;;;;;;5025416;28;20177;-88
2022/10/20 08:15:59;;;;;;;9.20;6.47;;;;;;;;;;5013942;28;20208;-88
2022/10/20 08:19:03;;;;;;;26.77;7.20;;;;;;;;;;5013529;28;20205;-88
2022/10/20 08:22:08;;;;;;;10.13;6.27;;;;;;;;;;5018017;28;20177;-88
2022/10/20 08:25:13;;;;;;;10.63;5.80;;;;;;;;;;5028072;28;20221;-88
2022/10/20 08:28:17;;;;;;;10.37;6.53;;;;;;;;;;5013605;28;20181;-88
2022/10/20 08:31:22;;;;;;;8.23;6.17;;;;;;;;;;5035289;28;20204;-88
2022/10/20 08:34:26;;;;;;;11.50;6.23;;;;;;;;;;5024507;28;20205;-88
2022/10/20 08:37:31;;;;;;;8.93;5.70;;;;;;;;;;5013442;28;20181;-89
2022/10/20 08:40:39;;;;;;;6.80;5.03;;;;;;;;;;5013653;28;20173;-88
2022/10/20 08:43:46;;;;;;;12.03;7.03;;;;;;;;;;5024473;28;20193;-88
2022/10/20 08:46:50;;;;;;;11.10;6.80;;;;;;;;;;5012778;28;20671;-88
2022/10/20 08:49:55;;;;;;;30.60;6.90;;;;;;;;;;5035324;28;20181;-88
2022/10/20 08:52:59;;;;;;;38.60;7.23;;;;;;;;;;5012683;28;20185;-88
2022/10/20 08:56:04;;;;;;;10.33;5.40;;;;;;;;;;5023820;28;20220;-88
2022/10/20 08:59:34;;;;;;;6.77;5.50;;;;;;;;;;5012753;28;20212;-88
2022/10/20 09:02:39;;;;;;;9.57;5.33;;;;;;;;;;5012476;28;20188;-88
2022/10/20 09:05:47;;;;;;;7.50;4.80;;;;;;;;;;5023265;28;20236;-88
2022/10/20 09:08:55;;;;;;;7.47;4.83;;;;;;;;;;5017085;28;20200;-88
2022/10/20 09:12:05;;;;;;;8.90;4.93;;;;;;;;;;5035465;28;20181;-88
2022/10/20 09:15:14;;;;;;;7.77;5.10;;;;;;;;;;5034942;28;20212;-88
2022/10/20 09:18:19;;;;;;;5.45;4.70;;;;;;;;;;5023347;28;20628;-89
2022/10/20 09:21:23;;;;;;;7.53;4.83;;;;;;;;;;5012057;28;20197;-89
2022/10/20 09:24:29;;;;;;;35.20;5.90;;;;;;;;;;5011793;28;20524;-88
2022/10/20 09:27:41;;;;;;;6.67;5.43;;;;;;;;;;5034629;28;20624;-88
2022/10/20 09:30:45;;;;;;;5.77;4.60;;;;;;;;;;5035363;28;20170;-89
2022/10/20 09:33:50;;;;;;;8.57;4.53;;;;;;;;;;5022983;28;20180;-89
2022/10/20 09:37:01;;;;;;;5.43;4.83;;;;;;;;;;5022661;28;20212;-88
2022/10/20 09:40:14;;;;;;;5.07;4.50;;;;;;;;;;5022583;28;20200;-88
2022/10/20 09:43:18;;;;;;;7.40;4.50;;;;;;;;;;5022923;28;20193;-89
2022/10/20 09:46:37;;;;;;;10.70;5.17;;;;;;;;;;5011460;28;20687;-89
2022/10/20 09:49:43;;;;;;;10.53;4.93;;;;;;;;;;5033970;28;20184;-89
2022/10/20 09:52:48;;;;;;;7.13;6.47;;;;;;;;;;5022617;28;20177;-89
2022/10/20 09:55:52;;;;;;;8.90;4.30;;;;;;;;;;5011120;28;20220;-89
2022/10/20 09:58:59;;;;;;;9.23;4.37;;;;;;;;;;5022701;28;20216;-89
2022/10/20 10:02:24;;;;;;;7.23;4.20;;;;;;;;;;5033031;28;20181;-89
2022/10/20 10:05:32;;;;;;;7.53;4.17;;;;;;;;;;5070171;22;20231;-87
2022/10/20 10:08:44;;;;;;;9.03;3.93;;;;;;;;;;5058722;28;20179;-86
2022/10/20 10:11:58;;;;;;;6.33;4.60;;;;;;;;;;5070018;28;20187;-86
2022/10/20 10:15:22;;;;;;;4.57;3.70;;;;;;;;;;5069786;28;20186;-87
2022/10/20 10:18:26;;;;;;;6.93;4.40;;;;;;;;;;5058372;28;20179;-86
2022/10/20 10:21:56;;;;;;;8.23;4.60;;;;;;;;;;5058384;28;20175;-86
2022/10/20 10:25:00;;;;;;;5.70;4.50;;;;;;;;;;5081292;28;20178;-86
2022/10/20 10:28:21;;;;;;;7.53;4.13;;;;;;;;;;5070025;28;20179;-86
2022/10/20 10:31:25;;;;;;;6.80;4.33;;;;;;;;;;5058432;28;20179;-86
2022/10/20 10:34:59;;;;;;;5.97;4.20;;;;;;;;;;5058390;28;20629;-86
2022/10/20 10:38:05;;;;;;;7.60;4.30;;;;;;;;;;5058851;28;20175;-86
2022/10/20 10:41:33;;;;;;;11.50;5.00;;;;;;;;;;5058881;28;20641;-86
2022/10/20 10:45:03;;;;;;;10.57;4.10;;;;;;;;;;5075692;28;20175;-86
2022/10/20 10:48:33;;;;;;;6.57;4.17;;;;;;;;;;5058086;28;20610;-86
2022/10/20 10:51:46;;;;;;;7.73;4.20;;;;;;;;;;5058227;28;20171;-86
2022/10/20 10:55:19;;;;;;;6.90;3.80;;;;;;;;;;5057953;28;20191;-86
2022/10/20 10:58:45;;;;;;;7.07;4.13;;;;;;;;;;5058223;28;20656;-86
2022/10/20 11:02:01;;;;;;;8.23;4.97;;;;;;;;;;5081051;28;20527;-87
2022/10/20 11:05:19;;;;;;;5.47;4.20;;;;;;;;;;5069129;28;20179;-87
2022/10/20 11:08:35;;;;;;;5.47;3.87;;;;;;;;;;5058193;28;20179;-87
2022/10/20 11:11:52;;;;;;;11.10;4.20;;;;;;;;;;5069253;28;20187;-87
2022/10/20 11:15:03;;;;;;;4.67;3.80;;;;;;;;;;5072440;28;20195;-87
2022/10/20 11:18:22;;;;;;;4.93;3.77;;;;;;;;;;5073425;28;20637;-87
2022/10/20 11:21:52;;;;;;;5.57;4.30;;;;;;;;;;5061884;28;20634;-87
2022/10/20 11:25:10;;;;;;;6.37;4.13;;;;;;;;;;5072737;28;20178;-87
2022/10/20 11:28:43;;;;;;;6.37;4.17;;;;;;;;;;5061506;28;20183;-87
2022/10/20 11:32:01;;;;;;;5.97;4.33;;;;;;;;;;5061776;28;20175;-87
2022/10/20 11:35:33;;;;;;;5.87;3.83;;;;;;;;;;5072724;28;20175;-86
2022/10/20 11:38:53;;;;;;;6.00;4.30;;;;;;;;;;5072808;28;20175;-86
2022/10/20 11:42:08;;;;;;;5.63;3.87;;;;;;;;;;5072797;28;20174;-87
2022/10/20 11:45:18;;;;;;;4.37;3.77;;;;;;;;;;5084036;28;20199;-87
2022/10/20 11:48:28;;;;;;;6.90;4.13;;;;;;;;;;5061195;28;20175;-87
2022/10/20 11:52:21;;;;;;;7.20;3.97;;;;;;;;;;5072499;28;20175;-86
2022/10/20 11:55:51;;;;;;;9.53;4.63;;;;;;;;;;5059794;28;20218;-86
2022/10/20 11:59:05;;;;;;;4.90;3.70;;;;;;;;;;5061163;28;20183;-87
2022/10/20 12:02:32;;;;;;;5.80;4.00;;;;;;;;;;5072390;28;20187;-87
2022/10/20 12:05:49;;;;;;;4.83;3.70;;;;;;;;;;5060659;28;20222;-87
2022/10/20 12:09:24;;;;;;;7.10;4.00;;;;;;;;;;5060840;28;20179;-87
2022/10/20 12:12:42;;;;;;;6.90;4.20;;;;;;;;;;5061031;28;20179;-87
2022/10/20 12:15:51;;;;;;;4.97;3.47;;;;;;;;;;5095902;28;20219;-87
2022/10/20 12:19:15;;;;;;;5.53;4.90;;;;;;;;;;5072414;28;20179;-87
2022/10/20 12:22:37;;;;;;;6.53;3.80;;;;;;;;;;5060777;28;20183;-87
2022/10/20 12:25:41;;;;;;;6.47;4.13;;;;;;;;;;5059653;28;20692;-87
2022/10/20 12:28:45;;;;;;;9.33;4.43;;;;;;;;;;5060666;28;20171;-86
2022/10/20 12:32:38;;;;;;;6.77;3.73;;;;;;;;;;5061068;28;20174;-86
2022/10/20 12:36:13;;;;;;;8.97;3.87;;;;;;;;;;5033927;28;20219;-87
2022/10/20 12:39:20;;;;;;;5.17;3.73;;;;;;;;;;5061728;28;20171;-86
2022/10/20 12:42:29;;;;;;;7.33;4.07;;;;;;;;;;5060194;28;20510;-86
2022/10/20 12:45:40;;;;;;;6.40;3.80;;;;;;;;;;5082786;28;20227;-87
2022/10/20 12:48:45;;;;;;;4.73;3.70;;;;;;;;;;5060414;28;20182;-87
2022/10/20 12:51:51;;;;;;;11.33;4.37;;;;;;;;;;5060295;28;20175;-87
2022/10/20 12:55:03;;;;;;;5.27;3.83;;;;;;;;;;5059627;28;20175;-86
2022/10/20 12:58:23;;;;;;;7.33;4.00;;;;;;;;;;5071761;28;20626;-87
2022/10/20 13:01:27;;;;;;;5.93;3.80;;;;;;;;;;5059638;28;20214;-87
2022/10/20 13:05:00;;;;;;;7.10;3.30;;;;;;;;;;5071406;28;20190;-86
2022/10/20 13:08:18;;;;;;;7.07;4.10;;;;;;;;;;5059602;28;20179;-87
2022/10/20 13:11:34;;;;;;;4.83;3.30;;;;;;;;;;5059925;28;20183;-87
2022/10/20 13:14:53;;;;;;;7.27;3.23;;;;;;;;;;5071319;28;20179;-87
2022/10/20 13:18:02;;;;;;;5.27;3.40;;;;;;;;;;5059232;28;20175;-87
2022/10/20 13:21:07;;;;;;;12.40;3.77;;;;;;;;;;5059482;28;20543;-86
2022/10/20 13:24:19;;;;;;;7.07;3.40;;;;;;;;;;5059148;28;20179;-87
2022/10/20 13:27:24;;;;;;;9.73;3.50;;;;;;;;;;5059106;28;20223;-86
2022/10/20 13:30:29;;;;;;;7.83;3.17;;;;;;;;;;5059559;28;20175;-86
2022/10/20 13:33:33;;;;;;;5.03;3.03;;;;;;;;;;5070402;28;20202;-86
2022/10/20 13:36:58;;;;;;;5.00;3.40;;;;;;;;;;5070344;28;20214;-87
2022/10/20 13:40:14;;;;;;;6.20;3.00;;;;;;;;;;5059509;28;20211;-87
2022/10/20 13:43:37;;;;;;;6.67;2.73;;;;;;;;;;5059023;28;20183;-87
2022/10/20 13:46:46;;;;;;;4.70;3.30;;;;;;;;;;5070363;28;20207;-87
2022/10/20 13:50:20;;;;;;;5.57;2.97;;;;;;;;;;5070277;28;20179;-86
2022/10/20 13:53:29;;;;;;;9.43;3.13;;;;;;;;;;5058963;28;20179;-87
2022/10/20 13:56:47;;;;;;;5.13;2.97;;;;;;;;;;5058675;28;20222;-88
2022/10/20 13:59:57;;;;;;;4.33;2.93;;;;;;;;;;5070325;28;20179;-89
2022/10/20 14:03:14;;;;;;;6.33;3.00;;;;;;;;;;5069990;28;20179;-89
2022/10/20 14:06:35;;;;;;;6.73;2.67;;;;;;;;;;5069754;28;20222;-89
2022/10/20 14:09:40;;;;;;;9.87;3.23;;;;;;;;;;5058777;28;20179;-89
2022/10/20 14:12:45;;;;;;;4.63;2.80;;;;;;;;;;5058588;28;20175;-88
2022/10/20 14:15:54;;;;;;;6.40;2.80;;;;;;;;;;5058990;28;20219;-90
2022/10/20 14:19:04;;;;;;;4.83;2.83;;;;;;;;;;5070075;28;20187;-87
2022/10/20 14:22:18;;;;;;;4.40;2.67;;;;;;;;;;5058818;28;20171;-86
2022/10/20 14:25:23;;;;;;;5.23;2.50;;;;;;;;;;5058420;28;20562;-87
2022/10/20 14:28:31;;;;;;;12.83;2.90;;;;;;;;;;5058235;28;20174;-86
2022/10/20 14:31:35;;;;;;;11.70;2.90;;;;;;;;;;5069732;28;20174;-86
2022/10/20 14:34:53;;;;;;;4.77;3.00;;;;;;;;;;5069560;28;20179;-86
2022/10/20 14:38:00;;;;;;;4.83;3.33;;;;;;;;;;5070681;28;20522;-86
2022/10/20 14:41:07;;;;;;;6.57;3.20;;;;;;;;;;5069758;28;20226;-86
2022/10/20 14:44:21;;;;;;;8.63;3.23;;;;;;;;;;5058367;28;20183;-86
2022/10/20 14:47:31;;;;;;;6.70;3.27;;;;;;;;;;5069529;28;20214;-86
2022/10/20 14:50:39;;;;;;;4.70;3.50;;;;;;;;;;5073760;28;20171;-86
2022/10/20 14:53:43;;;;;;;7.63;3.03;;;;;;;;;;5062022;28;20183;-86
2022/10/20 14:57:20;;;;;;;40.70;4.07;;;;;;;;;;5062264;28;20210;-86
2022/10/20 15:00:34;;;;;;;11.37;3.70;;;;;;;;;;5061679;28;20206;-86
2022/10/20 15:03:38;;;;;;;21.47;4.20;;;;;;;;;;5062168;28;20179;-85
2022/10/20 15:06:43;;;;;;;8.83;4.10;;;;;;;;;;5073114;28;20222;-86
2022/10/20 15:10:09;;;;;;;8.73;3.57;;;;;;;;;;5061652;28;20183;-86
2022/10/20 15:13:20;;;;;;;12.53;5.73;;;;;;;;;;5073440;28;20171;-86
2022/10/20 15:16:39;;;;;;;8.50;5.00;;;;;;;;;;5073384;28;20218;-85
2022/10/20 15:19:43;;;;;;;14.60;4.53;;;;;;;;;;5061645;28;20180;-86
2022/10/20 15:22:47;;;;;;;9.53;4.63;;;;;;;;;;5061375;28;20175;-85
2022/10/20 15:25:56;;;;;;;15.27;5.10;;;;;;;;;;5061550;28;20689;-87
2022/10/20 15:29:00;;;;;;;9.33;4.13;;;;;;;;;;5084676;28;20537;-86
2022/10/20 15:32:04;;;;;;;7.23;4.20;;;;;;;;;;5072717;28;20183;-86
2022/10/20 15:35:15;;;;;;;5.67;3.83;;;;;;;;;;5061289;28;20182;-86
2022/10/20 15:38:19;;;;;;;7.07;3.80;;;;;;;;;;5061661;28;20179;-86
2022/10/20 15:41:27;;;;;;;5.90;3.20;;;;;;;;;;5061175;28;20226;-86
2022/10/20 15:44:31;;;;;;;11.57;3.80;;;;;;;;;;5060916;28;20190;-86
2022/10/20 15:47:34;;;;;;;9.83;4.10;;;;;;;;;;5061189;28;20174;-86
2022/10/20 15:50:40;;;;;;;4.80;3.10;;;;;;;;;;5073190;28;20171;-86
2022/10/20 15:53:45;;;;;;;11.50;3.63;;;;;;;;;;5060829;28;20175;-86
2022/10/20 15:56:50;;;;;;;8.97;3.90;;;;;;;;;;5060751;28;20558;-88
2022/10/20 15:59:54;;;;;;;9.30;4.33;;;;;;;;;;5060622;28;20526;-87
2022/10/20 16:02:58;;;;;;;13.00;4.13;;;;;;;;;;5071921;28;20183;-86
2022/10/20 16:06:01;;;;;;;7.10;4.50;;;;;;;;;;5060228;28;20222;-89
2022/10/20 16:09:06;;;;;;;9.73;4.27;;;;;;;;;;5060930;28;20182;-89
2022/10/20 16:12:10;;;;;;;8.13;4.20;;;;;;;;;;5082980;28;20171;-89
2022/10/20 16:15:14;;;;;;;7.17;4.33;;;;;;;;;;5095772;28;20171;-88
2022/10/20 16:18:18;;;;;;;10.90;4.43;;;;;;;;;;5060334;28;20633;-88
2022/10/20 16:21:23;;;;;;;8.93;4.87;;;;;;;;;;5083310;28;20207;-88
2022/10/20 16:24:27;;;;;;;11.27;4.37;;;;;;;;;;5071856;28;20179;-89
2022/10/20 16:27:32;;;;;;;12.40;4.47;;;;;;;;;;5078143;28;20207;-89
2022/10/20 16:30:36;;;;;;;9.17;4.60;;;;;;;;;;5040243;28;20203;-88
2022/10/20 16:33:41;;;;;;;7.63;4.43;;;;;;;;;;5040487;28;20175;-89
2022/10/20 16:36:44;;;;;;;10.37;4.47;;;;;;;;;;5040516;28;20689;-90
2022/10/20 16:39:49;;;;;;;8.60;4.87;;;;;;;;;;5040203;28;20176;-89
2022/10/20 16:42:53;;;;;;;8.67;4.77;;;;;;;;;;5052082;28;20508;-89
2022/10/20 16:45:57;;;;;;;7.67;4.37;;;;;;;;;;5071199;28;20218;-89
2022/10/20 16:49:01;;;;;;;7.10;4.20;;;;;;;;;;5059888;28;20549;-88
2022/10/20 16:52:05;;;;;;;9.10;4.80;;;;;;;;;;5082870;28;20629;-88
2022/10/20 16:55:09;;;;;;;10.07;5.20;;;;;;;;;;5083063;28;20171;-89
2022/10/20 16:58:13;;;;;;;11.90;4.97;;;;;;;;;;5060177;28;20194;-87
2022/10/20 17:01:20;;;;;;;10.57;5.23;;;;;;;;;;5071379;28;20218;-89
2022/10/20 17:04:25;;;;;;;11.07;6.67;;;;;;;;;;5053132;28;20666;-89
2022/10/20 17:07:39;;;;;;;10.03;6.77;;;;;;;;;;5042088;28;20179;-89
2022/10/20 17:10:54;;;;;;;15.17;6.30;;;;;;;;;;5053063;28;20546;-89
2022/10/20 17:13:59;;;;;;;7.07;5.67;;;;;;;;;;5041558;28;20180;-89
2022/10/20 17:22:55;;;;;;;9.93;4.73;;;;;;;;;;5076021;28;20207;-87
2022/10/20 17:27:19;;;;;;;7.60;5.30;;;;;;;;;;5077784;28;20575;-88
2022/10/20 17:30:40;;;;;;;7.23;5.50;;;;;;;;;;5055937;28;20191;-87
2022/10/20 17:33:46;;;;;;;9.47;5.00;;;;;;;;;;5065916;28;20176;-87
2022/10/20 17:36:51;;;;;;;7.93;5.53;;;;;;;;;;5043776;28;20215;-88
2022/10/20 17:39:55;;;;;;;8.83;5.43;;;;;;;;;;5041228;28;20176;-89
2022/10/20 17:43:00;;;;;;;7.10;5.57;;;;;;;;;;5040756;28;20207;-87
2022/10/20 17:46:10;;;;;;;8.77;4.97;;;;;;;;;;5038971;28;20222;-89
2022/10/20 17:49:14;;;;;;;7.63;5.13;;;;;;;;;;5039241;28;20179;-89
2022/10/20 17:52:19;;;;;;;7.50;4.90;;;;;;;;;;5049771;28;20199;-89
2022/10/20 17:55:23;;;;;;;6.77;5.43;;;;;;;;;;5038478;28;20227;-89
2022/10/20 17:58:27;;;;;;;7.70;5.30;;;;;;;;;;5038854;28;20187;-88
2022/10/20 18:01:37;;;;;;;6.70;5.73;;;;;;;;;;5039136;28;20207;-89
2022/10/20 18:04:41;;;;;;;9.30;5.37;;;;;;;;;;5038554;28;20176;-89
2022/10/20 18:07:45;;;;;;;8.10;6.17;;;;;;;;;;5050271;28;20172;-89
2022/10/20 18:10:49;;;;;;;10.03;5.87;;;;;;;;;;5061971;28;20175;-89
2022/10/20 18:13:58;;;;;;;35.20;6.80;;;;;;;;;;5038729;28;20191;-89
2022/10/20 18:17:02;;;;;;;15.13;6.07;;;;;;;;;;5038017;28;20211;-89
2022/10/20 18:20:06;;;;;;;20.37;9.33;;;;;;;;;;5050171;28;20658;-89
2022/10/20 18:23:11;;;;;;;16.20;8.50;;;;;;;;;;5038158;28;20207;-89
2022/10/20 18:26:18;;;;;;;12.83;6.63;;;;;;;;;;5038675;28;20214;-89
2022/10/20 18:29:24;;;;;;;8.90;6.30;;;;;;;;;;5061132;28;20179;-89
2022/10/20 18:32:28;;;;;;;11.67;7.07;;;;;;;;;;5038078;28;20191;-89
2022/10/20 18:35:35;;;;;;;18.77;10.63;;;;;;;;;;5060577;28;20224;-89
2022/10/20 18:38:41;;;;;;;17.30;9.63;;;;;;;;;;5061305;28;20645;-89
2022/10/20 18:41:50;;;;;;;15.03;6.77;;;;;;;;;;5060981;28;20211;-89
2022/10/20 18:44:53;;;;;;;9.33;6.07;;;;;;;;;;5038295;28;20183;-89